Time;durP1;ratioP1;P1;durP2;ratioP2;P2;SDS_P1;SDS_P2;PMS_P1;PMS_P2;Temp;Humidity;BMP_temperature;BMP_pressure;BME280_temperature;BME280_humidity;BME280_pressure;Samples;Min_cycle;Max_cycle;Signal;HPM_P1;HPM_P2
2023/10/13 00:01:47;;;;;;;;;;;;;;;13.24;47.11;100059.66;5073605;28;20392;-76
2023/10/13 00:04:12;;;;;;;;;;;;;;;13.28;46.96;100068.91;5073551;28;19920;-75
2023/10/13 00:06:37;;;;;;;;;;;;;;;13.20;47.06;100061.88;5073566;28;19919;-75
2023/10/13 00:09:04;;;;;;;;;;;;;;;13.14;46.75;100062.56;5073894;28;20357;-77
2023/10/13 00:11:29;;;;;;;;;;;;;;;13.05;47.75;100058.34;5073367;28;19916;-75
2023/10/13 00:13:54;;;;;;;;;;;;;;;13.04;47.16;100057.53;5073342;28;19970;-77
2023/10/13 00:16:28;;;;;;;;;;;;;;;13.03;47.32;100055.88;5073312;28;19957;-77
2023/10/13 00:18:57;;;;;;;;;;;;;;;13.09;47.31;100053.50;5073206;28;19913;-77
2023/10/13 00:21:31;;;;;;;;;;;;;;;13.04;46.92;100046.91;5073783;28;19951;-76
2023/10/13 00:23:57;;;;;;;;;;;;;;;13.10;47.18;100045.38;5071998;28;19995;-77
2023/10/13 00:26:30;;;;;;;;;;;;;;;13.10;46.76;100047.19;5073025;28;20000;-77
2023/10/13 00:29:32;;;;;;;;;;;;;;;13.11;46.91;100054.16;5072973;28;19942;-76
2023/10/13 00:31:48;;;;;;;;;;;;;;;13.03;47.33;100049.75;5069553;28;20011;-78
2023/10/13 00:34:25;;;;;;;;;;;;;;;13.01;47.47;100049.09;5072819;28;19920;-77
2023/10/13 00:39:45;;;;;;;;;;;;;;;13.07;47.08;100045.72;5072846;28;19920;-77
2023/10/13 00:42:19;;;;;;;;;;;;;;;13.14;46.80;100044.00;5072813;28;19913;-75
2023/10/13 00:44:48;;;;;;;;;;;;;;;13.16;47.69;100044.63;5072636;28;20358;-77
2023/10/13 00:47:17;;;;;;;;;;;;;;;13.11;47.63;100043.53;5072608;28;20453;-76
2023/10/13 00:49:47;;;;;;;;;;;;;;;13.01;48.09;100049.94;5072511;28;19913;-77
2023/10/13 00:52:15;;;;;;;;;;;;;;;12.97;47.89;100038.03;5072482;28;20389;-76
2023/10/13 00:54:41;;;;;;;;;;;;;;;12.93;47.70;100035.94;5072517;28;19920;-76
2023/10/13 00:57:26;;;;;;;;;;;;;;;12.95;47.47;100036.59;5072425;28;19916;-77
2023/10/13 00:59:53;;;;;;;;;;;;;;;12.92;48.24;100035.13;5072482;28;19913;-77
2023/10/13 01:05:03;;;;;;;;;;;;;;;12.87;47.82;100041.97;5072382;28;19943;-77
2023/10/13 01:07:28;;;;;;;;;;;;;;;12.86;47.98;100050.91;5072441;28;20389;-77
2023/10/13 01:09:54;;;;;;;;;;;;;;;12.84;47.83;100035.19;5071087;28;19912;-78
2023/10/13 01:12:19;;;;;;;;;;;;;;;12.86;47.68;100038.50;5072147;28;20012;-76
2023/10/13 01:14:46;;;;;;;;;;;;;;;12.92;47.56;100039.59;5072157;28;19948;-77
2023/10/13 01:17:11;;;;;;;;;;;;;;;12.93;47.45;100034.13;5072128;28;19948;-78
2023/10/13 01:19:42;;;;;;;;;;;;;;;12.96;47.70;100036.41;5072378;28;19959;-76
2023/10/13 01:22:08;;;;;;;;;;;;;;;12.92;47.97;100034.28;5070869;28;20403;-77
2023/10/13 01:24:36;;;;;;;;;;;;;;;12.94;47.56;100032.28;5072045;28;19948;-78
2023/10/13 01:27:16;;;;;;;;;;;;;;;13.01;47.65;100027.91;5071989;28;19966;-78
2023/10/13 01:29:47;;;;;;;;;;;;;;;13.00;47.74;100032.38;5070755;28;19919;-77
2023/10/13 01:32:12;;;;;;;;;;;;;;;12.96;47.68;100028.44;5071902;28;19916;-78
2023/10/13 01:34:38;;;;;;;;;;;;;;;12.95;47.69;100029.44;5072012;28;19919;-77
2023/10/13 01:37:06;;;;;;;;;;;;;;;12.89;47.95;100032.81;5071903;28;20411;-77
2023/10/13 01:39:31;;;;;;;;;;;;;;;12.87;47.82;100028.72;5071729;28;20380;-78
2023/10/13 01:41:56;;;;;;;;;;;;;;;12.88;47.87;100025.88;5071879;28;19912;-77
2023/10/13 01:44:22;;;;;;;;;;;;;;;12.85;48.43;100030.72;5071999;28;19936;-77
2023/10/13 01:46:47;;;;;;;;;;;;;;;12.84;48.03;100029.91;5071942;28;19950;-77
2023/10/13 01:49:15;;;;;;;;;;;;;;;12.84;48.06;100029.91;5070573;28;19913;-77
2023/10/13 01:51:40;;;;;;;;;;;;;;;12.79;48.58;100026.97;5071843;28;19912;-77
2023/10/13 01:54:11;;;;;;;;;;;;;;;12.87;47.98;100023.41;5071720;28;19969;-77
2023/10/13 01:56:42;;;;;;;;;;;;;;;12.92;47.64;100026.34;5071937;28;19924;-76
2023/10/13 01:59:09;;;;;;;;;;;;;;;12.93;47.93;100026.16;5071507;28;19960;-77
2023/10/13 02:01:34;;;;;;;;;;;;;;;12.91;47.28;100032.66;5071453;28;20312;-78
2023/10/13 02:04:06;;;;;;;;;;;;;;;12.97;47.30;100030.09;5070342;28;19924;-77
2023/10/13 02:06:32;;;;;;;;;;;;;;;12.92;47.59;100029.00;5071659;28;19919;-78
2023/10/13 02:09:13;;;;;;;;;;;;;;;12.93;47.41;100023.50;5071422;28;19920;-77
2023/10/13 02:11:42;;;;;;;;;;;;;;;12.99;47.15;100012.19;5075190;28;19926;-76
2023/10/13 02:14:11;;;;;;;;;;;;;;;12.95;48.15;100015.38;5074388;28;19978;-76
2023/10/13 02:16:37;;;;;;;;;;;;;;;12.94;48.02;100013.72;5075834;28;19913;-77
2023/10/13 02:19:05;;;;;;;;;;;;;;;12.98;47.69;100015.84;5075603;28;20354;-78
2023/10/13 02:21:31;;;;;;;;;;;;;;;13.01;47.90;100015.47;5075549;28;20415;-77
2023/10/13 02:24:00;;;;;;;;;;;;;;;12.94;47.85;100019.03;5075507;28;20346;-77
2023/10/13 02:26:32;;;;;;;;;;;;;;;12.87;47.96;100015.47;5075392;28;19926;-77
2023/10/13 02:28:58;;;;;;;;;;;;;;;12.90;47.72;100012.44;5074196;28;20320;-77
2023/10/13 02:31:24;;;;;;;;;;;;;;;12.91;47.80;100009.63;5075480;28;19912;-78
2023/10/13 02:33:49;;;;;;;;;;;;;;;12.93;47.55;100004.97;5075586;28;19920;-77
2023/10/13 02:36:22;;;;;;;;;;;;;;;12.95;47.99;100013.56;5075489;28;19946;-76
2023/10/13 02:38:47;;;;;;;;;;;;;;;12.94;48.49;100014.56;5073663;28;20007;-76
2023/10/13 02:41:19;;;;;;;;;;;;;;;12.88;49.18;100015.28;5075033;28;19952;-77
2023/10/13 02:43:45;;;;;;;;;;;;;;;12.81;48.57;99997.63;5075133;28;20403;-77
2023/10/13 02:46:10;;;;;;;;;;;;;;;12.68;48.14;99998.25;5075046;28;19912;-77
2023/10/13 02:48:42;;;;;;;;;;;;;;;12.61;48.79;100008.72;5075100;28;19965;-77
2023/10/13 02:51:15;;;;;;;;;;;;;;;12.58;49.51;100002.97;5074938;28;20002;-77
2023/10/13 02:53:49;;;;;;;;;;;;;;;12.63;48.72;100011.19;5074740;28;19955;-77
2023/10/13 02:56:20;;;;;;;;;;;;;;;12.72;48.30;99996.91;5074736;28;19916;-77
2023/10/13 02:58:53;;;;;;;;;;;;;;;12.67;49.25;100010.69;5074870;28;19913;-78
2023/10/13 03:01:18;;;;;;;;;;;;;;;12.63;49.11;100013.84;5074686;28;19927;-76
2023/10/13 03:03:51;;;;;;;;;;;;;;;12.61;49.12;100015.84;5074383;28;20399;-77
2023/10/13 03:06:17;;;;;;;;;;;;;;;12.56;48.77;100020.88;5074548;28;19913;-76
2023/10/13 03:08:43;;;;;;;;;;;;;;;12.43;49.44;100007.41;5074531;28;20372;-78
2023/10/13 03:11:11;;;;;;;;;;;;;;;12.36;49.03;100016.06;5074309;28;19913;-77
2023/10/13 03:13:36;;;;;;;;;;;;;;;12.32;50.75;100011.31;5074428;28;19916;-77
2023/10/13 03:16:11;;;;;;;;;;;;;;;12.30;49.38;100005.34;5074493;28;19919;-78
2023/10/13 03:18:36;;;;;;;;;;;;;;;12.32;49.93;100004.19;5074705;28;20014;-77
2023/10/13 03:21:02;;;;;;;;;;;;;;;12.40;49.06;100013.88;5074088;28;20423;-77
2023/10/13 03:23:27;;;;;;;;;;;;;;;12.47;49.54;100011.34;5074468;28;19912;-77
2023/10/13 03:25:55;;;;;;;;;;;;;;;12.50;49.63;100014.47;5074533;28;19919;-78
2023/10/13 03:28:25;;;;;;;;;;;;;;;12.48;49.43;100013.81;5074338;28;19970;-77
2023/10/13 03:30:53;;;;;;;;;;;;;;;12.52;49.55;100019.56;5074000;28;19982;-77
2023/10/13 03:33:27;;;;;;;;;;;;;;;12.49;49.43;100018.09;5073986;28;19923;-77
2023/10/13 03:36:05;;;;;;;;;;;;;;;12.43;49.30;100010.88;5072784;28;20312;-76
2023/10/13 03:38:30;;;;;;;;;;;;;;;12.45;49.80;100008.03;5074003;28;20389;-77
2023/10/13 03:40:56;;;;;;;;;;;;;;;12.46;48.95;100013.16;5074080;28;19967;-77
2023/10/13 03:43:22;;;;;;;;;;;;;;;12.49;48.98;100010.16;5074087;28;20358;-78
2023/10/13 03:45:48;;;;;;;;;;;;;;;12.47;49.04;100008.69;5073981;28;19923;-77
2023/10/13 03:51:10;;;;;;;;;;;;;;;12.44;49.69;100001.09;5073859;28;19912;-78
2023/10/13 03:53:38;;;;;;;;;;;;;;;12.36;49.69;99996.69;5072376;28;19963;-77
2023/10/13 03:56:08;;;;;;;;;;;;;;;12.30;49.95;100006.19;5073684;28;19916;-78
2023/10/13 03:58:34;;;;;;;;;;;;;;;12.26;49.59;100012.00;5073608;28;19917;-77
2023/10/13 04:01:00;;;;;;;;;;;;;;;12.33;48.47;100008.47;5073645;28;19919;-78
2023/10/13 04:03:32;;;;;;;;;;;;;;;12.28;49.07;100015.31;5073616;28;19913;-77
2023/10/13 04:06:06;;;;;;;;;;;;;;;11.59;50.27;99908.56;5073603;28;19912;-77
2023/10/13 04:16:54;;;;;;;;;;;;;;;12.07;49.63;100016.78;5068704;28;19912;-77
2023/10/13 04:19:22;;;;;;;;;;;;;;;12.07;50.07;100015.94;5072296;28;20390;-77
2023/10/13 04:25:00;;;;;;;;;;;;;;;12.11;49.84;100009.31;5063048;28;19934;-76
2023/10/13 04:27:39;;;;;;;;;;;;;;;12.13;49.47;100006.47;5073273;28;20376;-77
2023/10/13 04:32:38;;;;;;;;;;;;;;;12.15;49.98;100013.25;5072171;28;19916;-77
2023/10/13 04:35:47;;;;;;;;;;;;;;;12.05;50.49;100012.66;5073054;28;19981;-77
2023/10/13 04:38:01;;;;;;;;;;;;;;;12.00;49.70;100029.06;5069794;28;19920;-77
2023/10/13 04:40:28;;;;;;;;;;;;;;;12.03;50.00;100026.06;5073086;28;19912;-77
2023/10/13 04:42:56;;;;;;;;;;;;;;;12.04;49.94;100027.72;5072995;28;19915;-77
2023/10/13 04:48:13;;;;;;;;;;;;;;;12.02;50.21;100034.19;5073181;28;19999;-78
2023/10/13 04:50:45;;;;;;;;;;;;;;;12.01;51.41;100036.00;5073213;28;19919;-77
2023/10/13 04:53:27;;;;;;;;;;;;;;;11.98;51.67;100036.34;5072868;28;19921;-77
2023/10/13 05:01:39;;;;;;;;;;;;;;;11.97;51.08;100047.94;5072844;28;19995;-76
2023/10/13 05:44:53;;;;;;;;;;;;;;;12.71;49.98;100077.38;5071693;28;19919;-76
2023/10/13 06:31:01;;;;;;;;;;;;;;;14.08;49.54;100087.50;5064184;28;19940;-77
2023/10/13 06:33:28;;;;;;;;;;;;;;;14.18;49.73;100085.38;5065521;28;20463;-77
2023/10/13 06:35:56;;;;;;;;;;;;;;;14.27;49.33;100083.44;5053327;28;20009;-77
2023/10/13 06:38:22;;;;;;;;;;;;;;;14.37;49.15;100086.59;5054194;28;19923;-77
2023/10/13 06:40:50;;;;;;;;;;;;;;;14.44;49.24;100090.19;5062416;28;19921;-77
2023/10/13 06:43:21;;;;;;;;;;;;;;;14.51;49.34;100093.72;5063641;28;20366;-77
2023/10/13 06:46:03;;;;;;;;;;;;;;;14.59;49.31;100082.97;5056616;28;19916;-77
2023/10/13 06:48:33;;;;;;;;;;;;;;;14.68;49.71;100088.16;5067489;28;19916;-77
2023/10/13 06:51:05;;;;;;;;;;;;;;;14.77;49.29;100076.38;5070277;28;19960;-77
2023/10/13 06:53:36;;;;;;;;;;;;;;;14.84;49.20;100078.06;5067002;28;19927;-77
2023/10/13 06:56:03;;;;;;;;;;;;;;;14.94;49.19;100072.44;5052268;28;19934;-77
2023/10/13 06:58:29;;;;;;;;;;;;;;;15.03;48.79;100073.13;5071026;28;19917;-77
2023/10/13 07:00:55;;;;;;;;;;;;;;;15.12;48.73;100079.94;5068274;28;19996;-78
2023/10/13 07:03:21;;;;;;;;;;;;;;;15.20;48.67;100074.47;5067796;28;19971;-77
2023/10/13 07:05:47;;;;;;;;;;;;;;;15.29;49.09;100080.44;5074826;28;19913;-77
2023/10/13 07:08:14;;;;;;;;;;;;;;;15.38;48.73;100080.09;5074475;28;19912;-78
2023/10/13 07:11:04;;;;;;;;;;;;;;;15.48;48.79;100082.41;5073563;28;20432;-77
2023/10/13 07:13:30;;;;;;;;;;;;;;;15.56;49.07;100082.22;5066307;28;20375;-78
2023/10/13 07:16:00;;;;;;;;;;;;;;;15.65;48.89;100081.13;5069945;28;19920;-77
2023/10/13 07:18:25;;;;;;;;;;;;;;;15.74;48.95;100087.91;5072461;28;19951;-78
2023/10/13 07:20:50;;;;;;;;;;;;;;;15.82;48.74;100090.41;5061638;28;20027;-78
2023/10/13 07:23:19;;;;;;;;;;;;;;;15.89;48.69;100079.78;5070346;28;19917;-77
2023/10/13 07:25:51;;;;;;;;;;;;;;;15.98;48.25;100083.09;5070502;28;20332;-78
2023/10/13 07:28:17;;;;;;;;;;;;;;;16.08;47.44;100071.03;5072782;28;19989;-77
2023/10/13 07:30:49;;;;;;;;;;;;;;;16.20;48.02;100076.59;5072987;28;20394;-78
2023/10/13 07:33:15;;;;;;;;;;;;;;;16.30;48.01;100065.53;5070707;28;20317;-77
2023/10/13 07:35:50;;;;;;;;;;;;;;;16.40;48.41;100071.31;5062319;28;19916;-76
2023/10/13 07:38:16;;;;;;;;;;;;;;;16.48;47.95;100076.47;5083516;28;19916;-76
2023/10/13 07:40:42;;;;;;;;;;;;;;;16.58;48.05;100076.06;5072336;28;19924;-74
2023/10/13 07:43:10;;;;;;;;;;;;;;;16.66;47.95;100074.06;5073939;28;19912;-77
2023/10/13 07:45:36;;;;;;;;;;;;;;;16.75;47.92;100066.66;5069372;28;19966;-78
2023/10/13 07:48:07;;;;;;;;;;;;;;;16.82;47.58;100068.31;5057067;28;19917;-77
2023/10/13 07:50:33;;;;;;;;;;;;;;;16.94;46.56;100065.00;5053541;28;19913;-78
2023/10/13 07:53:04;;;;;;;;;;;;;;;16.46;46.22;99972.72;5054361;28;20405;-77
2023/10/13 07:55:32;;;;;;;;;;;;;;;17.18;46.15;100063.56;5060279;28;20294;-77
2023/10/13 07:58:07;;;;;;;;;;;;;;;17.28;46.16;100069.31;5072264;28;19913;-75
2023/10/13 08:00:46;;;;;;;;;;;;;;;17.40;45.83;100068.44;5065748;28;19916;-77
2023/10/13 08:05:55;;;;;;;;;;;;;;;17.62;45.69;100071.66;5068442;28;19929;-77
2023/10/13 08:08:21;;;;;;;;;;;;;;;17.71;45.99;100075.78;5065827;28;20149;-78
2023/10/13 08:10:47;;;;;;;;;;;;;;;17.78;45.55;100079.22;5073429;28;19965;-77
2023/10/13 08:13:12;;;;;;;;;;;;;;;17.86;45.38;100083.56;5056914;28;20375;-77
2023/10/13 08:15:47;;;;;;;;;;;;;;;17.93;44.93;100081.66;5066130;28;19916;-77
2023/10/13 08:18:30;;;;;;;;;;;;;;;18.02;45.06;100083.06;5069203;28;19920;-77
2023/10/13 08:21:03;;;;;;;;;;;;;;;18.13;44.73;100081.56;5071998;28;19917;-77
2023/10/13 08:26:57;;;;;;;;;;;;;;;18.33;44.43;100082.25;5068679;28;20037;-76
2023/10/13 08:32:05;;;;;;;;;;;;;;;18.53;43.95;100071.44;5068922;28;19917;-75
2023/10/13 08:42:52;;;;;;;;;;;;;;;18.96;43.40;100054.69;5073015;28;19912;-77
2023/10/13 08:50:52;;;;;;;;;;;;;;;19.26;42.76;100055.59;5052288;28;19913;-77
2023/10/13 09:01:34;;;;;;;;;;;;;;;19.75;42.57;100051.19;5059746;28;20326;-76
2023/10/13 09:07:03;;;;;;;;;;;;;;;20.00;42.12;100045.72;5071846;28;19916;-75
2023/10/13 09:12:13;;;;;;;;;;;;;;;20.20;41.92;100034.72;5071936;28;19960;-78
2023/10/13 09:14:44;;;;;;;;;;;;;;;20.34;41.75;100040.72;5064245;28;19916;-75
2023/10/13 09:17:34;;;;;;;;;;;;;;;20.46;41.33;100033.53;5062868;28;19916;-76
2023/10/13 09:20:24;;;;;;;;;;;;;;;20.59;41.52;100025.28;5058804;28;19917;-75
2023/10/13 09:25:33;;;;;;;;;;;;;;;20.81;40.96;100033.59;5069357;28;19912;-75
2023/10/13 09:28:00;;;;;;;;;;;;;;;20.93;40.88;100029.88;5067266;28;19913;-75
2023/10/13 09:30:28;;;;;;;;;;;;;;;21.06;40.70;100025.31;5055252;28;19980;-76
2023/10/13 09:33:08;;;;;;;;;;;;;;;21.20;40.57;100021.34;5064839;28;20487;-75
2023/10/13 09:35:34;;;;;;;;;;;;;;;21.31;40.13;100023.22;5086613;28;19963;-78
2023/10/13 09:38:02;;;;;;;;;;;;;;;21.39;40.05;100017.47;5067523;28;19960;-75
2023/10/13 09:43:04;;;;;;;;;;;;;;;21.54;39.57;100017.78;5069502;28;19920;-74
2023/10/13 09:45:37;;;;;;;;;;;;;;;21.58;38.99;100011.97;5064754;28;19921;-77
2023/10/13 09:48:15;;;;;;;;;;;;;;;21.69;39.00;100016.47;5071408;28;19912;-75
2023/10/13 09:50:44;;;;;;;;;;;;;;;21.83;39.29;100009.75;5071864;28;19913;-76
2023/10/13 09:53:10;;;;;;;;;;;;;;;21.96;38.89;100003.28;5069071;28;20440;-77
2023/10/13 09:55:39;;;;;;;;;;;;;;;22.06;39.03;100007.00;5070062;28;19916;-77
2023/10/13 09:58:14;;;;;;;;;;;;;;;22.17;38.34;99998.03;5058545;28;20030;-76
2023/10/13 10:01:07;;;;;;;;;;;;;;;22.31;38.45;100003.16;5071544;28;19916;-77
2023/10/13 10:06:05;;;;;;;;;;;;;;;22.59;38.80;99999.56;5070760;28;19924;-77
2023/10/13 10:08:33;;;;;;;;;;;;;;;22.73;38.54;99993.59;5071772;28;19912;-77
2023/10/13 10:11:19;;;;;;;;;;;;;;;22.89;37.94;99989.28;5071791;28;19912;-76
2023/10/13 10:13:44;;;;;;;;;;;;;;;23.04;37.71;99986.81;5071476;28;20003;-76
2023/10/13 10:16:19;;;;;;;;;;;;;;;23.19;37.39;99980.00;5071830;28;20417;-76
2023/10/13 10:18:45;;;;;;;;;;;;;;;23.33;37.10;99981.25;5055109;28;19981;-75
2023/10/13 10:21:11;;;;;;;;;;;;;;;23.45;36.72;99977.38;5067872;28;19916;-75
2023/10/13 10:23:40;;;;;;;;;;;;;;;23.59;36.33;99982.41;5072066;28;19917;-77
2023/10/13 10:26:13;;;;;;;;;;;;;;;23.69;36.97;99977.13;5062532;28;20099;-74
2023/10/13 10:28:41;;;;;;;;;;;;;;;23.78;36.65;99972.91;5072023;28;19923;-76
2023/10/13 10:31:12;;;;;;;;;;;;;;;23.90;36.09;99967.38;5071876;28;19920;-76
2023/10/13 10:33:38;;;;;;;;;;;;;;;23.97;35.54;99963.41;5071817;28;19920;-76
2023/10/13 10:36:05;;;;;;;;;;;;;;;24.07;36.12;99960.81;5073878;28;19917;-76
2023/10/13 10:40:57;;;;;;;;;;;;;;;24.22;35.52;99962.00;5061056;28;19917;-76
2023/10/13 10:43:43;;;;;;;;;;;;;;;24.36;34.63;99955.13;5055153;28;19917;-77
2023/10/13 10:46:12;;;;;;;;;;;;;;;24.50;35.49;99960.91;5055430;28;19943;-76
2023/10/13 10:48:43;;;;;;;;;;;;;;;24.55;35.62;99956.38;5060038;28;19916;-78
2023/10/13 10:53:44;;;;;;;;;;;;;;;24.76;35.26;99934.91;5069308;28;19962;-76
2023/10/13 10:58:56;;;;;;;;;;;;;;;24.99;34.10;99924.50;5064107;28;19912;-76
2023/10/13 11:01:25;;;;;;;;;;;;;;;25.08;34.61;99927.53;5074761;28;19912;-76
2023/10/13 11:03:57;;;;;;;;;;;;;;;25.18;34.46;99927.56;5071351;28;19920;-77
2023/10/13 11:06:24;;;;;;;;;;;;;;;25.31;34.68;99924.41;5062606;28;19917;-77
2023/10/13 11:08:52;;;;;;;;;;;;;;;25.35;34.10;99927.38;5072977;28;19921;-77
2023/10/13 11:11:30;;;;;;;;;;;;;;;25.33;33.26;99914.13;5068414;28;19916;-76
2023/10/13 11:14:03;;;;;;;;;;;;;;;25.33;34.46;99916.84;5065248;28;19926;-76
2023/10/13 11:16:34;;;;;;;;;;;;;;;25.32;34.27;99914.41;5074653;28;19912;-75
2023/10/13 11:19:10;;;;;;;;;;;;;;;25.34;33.76;99906.84;5074077;28;19912;-75
2023/10/13 11:21:37;;;;;;;;;;;;;;;25.37;33.31;99906.31;5074488;28;19919;-75
2023/10/13 11:24:08;;;;;;;;;;;;;;;25.34;33.55;99904.94;5074473;28;19919;-75
2023/10/13 11:26:49;;;;;;;;;;;;;;;25.26;33.90;99900.03;5074267;28;20451;-75
2023/10/13 11:29:14;;;;;;;;;;;;;;;25.21;32.75;99896.50;5074868;28;19912;-75
2023/10/13 11:31:41;;;;;;;;;;;;;;;25.15;32.88;99892.97;5074482;28;19924;-76
2023/10/13 11:34:09;;;;;;;;;;;;;;;25.06;33.70;99897.25;5063962;28;19989;-75
2023/10/13 11:36:35;;;;;;;;;;;;;;;24.97;33.15;99890.69;5074205;28;19923;-76
2023/10/13 11:39:00;;;;;;;;;;;;;;;24.89;34.52;99894.72;5073002;28;20007;-76
2023/10/13 11:41:33;;;;;;;;;;;;;;;24.80;34.56;99890.09;5065167;28;20003;-75
2023/10/13 11:49:13;;;;;;;;;;;;;;;24.56;33.01;99889.69;5070055;28;19923;-75
2023/10/13 11:51:49;;;;;;;;;;;;;;;24.49;34.13;99884.50;5059003;28;19913;-75
2023/10/13 11:54:18;;;;;;;;;;;;;;;24.46;33.50;99893.13;5071632;28;20016;-76
2023/10/13 11:56:47;;;;;;;;;;;;;;;24.43;34.44;99882.03;5070995;28;19920;-75
2023/10/13 11:59:18;;;;;;;;;;;;;;;24.34;35.13;99881.72;5070546;28;19916;-76
2023/10/13 12:04:43;;;;;;;;;;;;;;;24.07;34.49;99877.19;5056476;28;19954;-75
2023/10/13 12:07:17;;;;;;;;;;;;;;;23.96;35.27;99880.06;5074750;28;19921;-77
2023/10/13 12:12:20;;;;;;;;;;;;;;;23.72;35.81;99879.53;5054057;28;19967;-77
2023/10/13 12:14:58;;;;;;;;;;;;;;;23.67;36.27;99879.50;5073489;28;20317;-76
2023/10/13 12:17:39;;;;;;;;;;;;;;;23.66;34.70;99877.88;5073587;28;19916;-75
2023/10/13 12:20:05;;;;;;;;;;;;;;;23.69;33.85;99877.38;5073042;28;20314;-77
2023/10/13 12:22:39;;;;;;;;;;;;;;;23.73;34.29;99873.91;5073191;28;19916;-76
2023/10/13 12:25:25;;;;;;;;;;;;;;;23.80;34.29;99873.72;5066191;28;19917;-77
2023/10/13 12:27:57;;;;;;;;;;;;;;;23.88;34.64;99875.13;5052811;28;19913;-76
2023/10/13 12:30:35;;;;;;;;;;;;;;;23.94;34.45;99876.81;5053675;28;20305;-77
2023/10/13 12:33:08;;;;;;;;;;;;;;;23.94;35.37;99877.63;5057069;28;20298;-76
2023/10/13 12:38:36;;;;;;;;;;;;;;;23.93;33.95;99878.69;5073006;28;19990;-75
2023/10/13 12:49:28;;;;;;;;;;;;;;;23.91;35.40;99883.53;5052665;28;20313;-76
2023/10/13 12:51:53;;;;;;;;;;;;;;;23.88;34.92;99878.63;5052433;28;20400;-76
2023/10/13 12:54:24;;;;;;;;;;;;;;;23.87;34.88;99878.91;5064566;28;19912;-76
2023/10/13 12:56:56;;;;;;;;;;;;;;;23.84;35.94;99882.09;5065510;28;19920;-76
2023/10/13 12:59:26;;;;;;;;;;;;;;;23.82;36.14;99878.84;5075134;28;20411;-77
2023/10/13 13:01:52;;;;;;;;;;;;;;;23.80;35.85;99876.41;5060055;28;19912;-77
2023/10/13 13:04:20;;;;;;;;;;;;;;;23.82;35.82;99874.28;5060945;28;19920;-77
2023/10/13 13:06:46;;;;;;;;;;;;;;;23.85;34.17;99868.38;5069779;28;19917;-76
2023/10/13 13:09:11;;;;;;;;;;;;;;;23.90;34.62;99870.28;5055506;28;19916;-76
2023/10/13 13:11:39;;;;;;;;;;;;;;;23.94;34.92;99868.72;5070174;28;20494;-77
2023/10/13 13:14:08;;;;;;;;;;;;;;;23.95;35.36;99868.44;5052224;28;20015;-76
2023/10/13 13:16:34;;;;;;;;;;;;;;;23.96;36.13;99871.97;5064812;28;19950;-75
2023/10/13 13:19:14;;;;;;;;;;;;;;;23.92;36.30;99870.84;5072394;28;19920;-77
2023/10/13 13:21:39;;;;;;;;;;;;;;;23.85;36.45;99870.25;5064551;28;19938;-78
2023/10/13 13:24:10;;;;;;;;;;;;;;;23.77;36.61;99863.41;5061966;28;20377;-77
2023/10/13 13:26:36;;;;;;;;;;;;;;;23.72;36.52;99863.38;5070941;28;19939;-76
2023/10/13 13:29:02;;;;;;;;;;;;;;;23.72;36.64;99863.38;5072127;28;20309;-75
2023/10/13 13:31:31;;;;;;;;;;;;;;;23.73;36.79;99857.72;5063439;28;19963;-77
2023/10/13 13:33:56;;;;;;;;;;;;;;;23.75;37.07;99860.16;5069088;28;19925;-75
2023/10/13 13:36:22;;;;;;;;;;;;;;;23.77;36.53;99850.75;5069530;28;20380;-76
2023/10/13 13:38:51;;;;;;;;;;;;;;;23.86;35.83;99853.00;5072141;28;19916;-75
2023/10/13 13:41:17;;;;;;;;;;;;;;;23.98;35.32;99854.44;5071783;28;19912;-75
2023/10/13 13:43:55;;;;;;;;;;;;;;;24.06;35.63;99864.75;5071030;28;19924;-75
2023/10/13 13:46:29;;;;;;;;;;;;;;;24.12;35.42;99862.91;5069911;28;19920;-75
2023/10/13 13:48:59;;;;;;;;;;;;;;;24.26;34.69;99860.56;5071775;28;20435;-75
2023/10/13 13:51:32;;;;;;;;;;;;;;;24.47;34.13;99850.75;5071845;28;19912;-76
2023/10/13 13:53:58;;;;;;;;;;;;;;;24.60;34.18;99848.41;5069762;28;19974;-76
2023/10/13 13:56:25;;;;;;;;;;;;;;;24.58;34.49;99855.16;5072042;28;19970;-76
2023/10/13 13:58:51;;;;;;;;;;;;;;;24.47;35.44;99851.56;5071948;28;19959;-77
2023/10/13 14:01:19;;;;;;;;;;;;;;;24.35;35.77;99849.06;5069358;28;19916;-77
2023/10/13 14:03:46;;;;;;;;;;;;;;;24.23;36.19;99853.00;5066283;28;19927;-76
2023/10/13 14:06:24;;;;;;;;;;;;;;;24.10;36.33;99848.88;5071092;28;19965;-76
2023/10/13 14:08:56;;;;;;;;;;;;;;;23.96;36.92;99848.50;5075824;28;20332;-76
2023/10/13 14:14:13;;;;;;;;;;;;;;;23.84;37.35;99845.16;5073529;28;19924;-76
2023/10/13 14:16:46;;;;;;;;;;;;;;;23.98;37.40;99849.06;5066624;28;20360;-76
2023/10/13 14:19:12;;;;;;;;;;;;;;;24.21;37.22;99847.06;5073212;28;19995;-77
2023/10/13 14:21:38;;;;;;;;;;;;;;;24.41;37.00;99847.19;5075757;28;19944;-75
2023/10/13 14:24:12;;;;;;;;;;;;;;;24.47;36.96;99850.75;5067062;28;20007;-76
2023/10/13 14:26:37;;;;;;;;;;;;;;;24.36;37.50;99849.88;5071477;28;19912;-78
2023/10/13 14:29:09;;;;;;;;;;;;;;;24.30;37.79;99853.63;5073916;28;19920;-76
2023/10/13 14:31:39;;;;;;;;;;;;;;;24.25;37.46;99851.66;5075510;28;19912;-75
2023/10/13 14:34:04;;;;;;;;;;;;;;;24.11;37.93;99841.59;5075429;28;20305;-76
2023/10/13 14:36:34;;;;;;;;;;;;;;;23.98;38.38;99843.66;5075050;28;19931;-76
2023/10/13 14:39:00;;;;;;;;;;;;;;;23.86;38.48;99848.41;5073388;28;19959;-78
2023/10/13 14:41:25;;;;;;;;;;;;;;;23.74;38.90;99847.75;5075002;28;19919;-77
2023/10/13 14:43:51;;;;;;;;;;;;;;;23.63;38.98;99840.66;5073204;28;19913;-77
2023/10/13 14:46:22;;;;;;;;;;;;;;;23.52;39.65;99845.09;5071982;28;20304;-79
2023/10/13 14:48:48;;;;;;;;;;;;;;;23.40;39.69;99845.25;5074577;28;19946;-78
2023/10/13 14:51:16;;;;;;;;;;;;;;;23.31;39.92;99846.78;5074560;28;19908;-77
2023/10/13 14:53:43;;;;;;;;;;;;;;;23.23;40.70;99838.34;5074763;28;19944;-77
2023/10/13 14:56:17;;;;;;;;;;;;;;;23.13;40.75;99842.56;5075143;28;20359;-78
2023/10/13 14:58:44;;;;;;;;;;;;;;;23.07;41.08;99843.56;5074983;28;20369;-77
2023/10/13 15:01:16;;;;;;;;;;;;;;;23.02;40.73;99839.97;5074625;28;19970;-77
2023/10/13 15:03:44;;;;;;;;;;;;;;;22.98;41.43;99846.94;5074799;28;19921;-77
2023/10/13 15:06:17;;;;;;;;;;;;;;;22.93;41.07;99849.56;5074755;28;19920;-77
2023/10/13 15:08:45;;;;;;;;;;;;;;;22.88;41.85;99847.63;5074752;28;19912;-76
2023/10/13 15:11:12;;;;;;;;;;;;;;;22.82;41.26;99848.63;5074596;28;19917;-77
2023/10/13 15:13:38;;;;;;;;;;;;;;;22.76;41.65;99853.09;5073227;28;19952;-77
2023/10/13 15:16:13;;;;;;;;;;;;;;;22.72;41.64;99853.84;5074400;28;19947;-76
2023/10/13 15:18:39;;;;;;;;;;;;;;;22.66;42.18;99844.09;5074187;28;19913;-78
2023/10/13 15:21:08;;;;;;;;;;;;;;;22.61;41.98;99850.22;5073464;28;19996;-76
2023/10/13 15:23:42;;;;;;;;;;;;;;;22.56;41.96;99854.72;5073250;28;19912;-75
2023/10/13 15:26:09;;;;;;;;;;;;;;;22.49;42.62;99850.34;5074623;28;19913;-76
2023/10/13 15:28:37;;;;;;;;;;;;;;;22.44;42.82;99852.16;5074446;28;19923;-76
2023/10/13 15:31:10;;;;;;;;;;;;;;;22.39;42.45;99852.06;5074630;28;19912;-76
2023/10/13 15:33:35;;;;;;;;;;;;;;;22.34;42.82;99860.88;5074109;28;20313;-75
2023/10/13 15:36:00;;;;;;;;;;;;;;;22.28;42.78;99848.41;5074318;28;19983;-76
2023/10/13 15:38:28;;;;;;;;;;;;;;;22.23;42.46;99860.97;5074393;28;19927;-75
2023/10/13 15:40:54;;;;;;;;;;;;;;;22.19;43.30;99860.63;5074419;28;19979;-76
2023/10/13 15:43:19;;;;;;;;;;;;;;;22.13;42.67;99857.06;5074353;28;19995;-77
2023/10/13 15:45:45;;;;;;;;;;;;;;;22.09;43.18;99865.84;5074288;28;19959;-78
2023/10/13 15:48:11;;;;;;;;;;;;;;;22.05;43.22;99867.41;5073958;28;19999;-77
2023/10/13 15:50:40;;;;;;;;;;;;;;;21.99;43.50;99874.56;5072491;28;20443;-76
2023/10/13 15:53:06;;;;;;;;;;;;;;;21.95;43.24;99876.09;5074726;28;20473;-77
2023/10/13 15:55:34;;;;;;;;;;;;;;;21.89;44.13;99871.69;5074651;28;19913;-76
2023/10/13 15:58:00;;;;;;;;;;;;;;;21.84;44.32;99877.00;5074147;28;19912;-78
2023/10/13 16:00:25;;;;;;;;;;;;;;;21.80;44.18;99886.59;5072512;28;19912;-75
2023/10/13 16:02:54;;;;;;;;;;;;;;;21.76;44.00;99888.13;5073574;28;19919;-75
2023/10/13 16:05:22;;;;;;;;;;;;;;;21.72;43.75;99885.13;5072181;28;19962;-78